createdAt,value
2023-05-21T00:00:05.342Z,34.45
2023-05-21T00:01:05.372Z,34.48
2023-05-21T00:02:05.437Z,34.51
2023-05-21T00:03:05.595Z,34.47
2023-05-21T00:04:05.634Z,34.50
2023-05-21T00:05:05.619Z,34.54
2023-05-21T00:06:05.684Z,34.51
2023-05-21T00:07:05.710Z,34.52
2023-05-21T00:08:05.803Z,34.52
2023-05-21T00:09:05.838Z,34.51
2023-05-21T00:10:05.884Z,34.48
2023-05-21T00:11:05.957Z,34.52
2023-05-21T00:12:06.002Z,34.47
2023-05-21T00:13:06.084Z,34.50
2023-05-21T00:14:06.127Z,34.51
2023-05-21T00:15:06.310Z,34.50
2023-05-21T00:16:06.278Z,34.52
2023-05-21T00:17:06.317Z,34.52
2023-05-21T00:18:06.408Z,34.54
2023-05-21T00:19:06.626Z,34.54
2023-05-21T00:20:06.485Z,34.52
2023-05-21T00:21:06.548Z,34.51
2023-05-21T00:22:06.602Z,34.54
2023-05-21T00:23:07.312Z,34.56
2023-05-21T00:24:06.806Z,34.52
2023-05-21T00:25:06.803Z,34.52
2023-05-21T00:26:06.841Z,34.54
2023-05-21T00:27:06.904Z,34.56
2023-05-21T00:28:06.963Z,34.54
2023-05-21T00:29:07.808Z,34.55
2023-05-21T00:30:07.093Z,34.57
2023-05-21T00:31:07.164Z,34.54
2023-05-21T00:32:07.253Z,34.55
2023-05-21T00:33:07.288Z,34.60
2023-05-21T00:34:07.322Z,34.57
2023-05-21T00:35:07.400Z,34.57
2023-05-21T00:36:08.298Z,34.57
2023-05-21T00:37:07.498Z,34.59
2023-05-21T00:38:07.571Z,34.57
2023-05-21T00:39:07.675Z,34.62
2023-05-21T00:40:07.731Z,34.57
2023-05-21T00:41:07.746Z,34.60
2023-05-21T00:42:07.788Z,34.61
2023-05-21T00:43:07.902Z,34.58
2023-05-21T00:44:07.920Z,34.56
2023-05-21T00:45:07.990Z,34.58
2023-05-21T00:46:08.085Z,34.64
2023-05-21T00:47:08.109Z,34.64
2023-05-21T00:48:08.218Z,34.64
2023-05-21T00:49:08.212Z,34.61
2023-05-21T00:50:08.265Z,34.59
2023-05-21T00:51:08.323Z,34.62
2023-05-21T00:52:08.392Z,34.58
2023-05-21T00:53:08.436Z,34.60
2023-05-21T00:54:08.481Z,34.64
2023-05-21T00:55:08.538Z,34.59
2023-05-21T00:56:09.309Z,34.61
2023-05-21T00:57:08.644Z,34.59
2023-05-21T00:58:08.695Z,34.59
2023-05-21T00:59:08.739Z,34.65
2023-05-21T01:00:08.854Z,34.62
2023-05-21T01:01:08.868Z,34.64
2023-05-21T01:02:08.946Z,34.67
2023-05-21T01:03:09.002Z,34.67
2023-05-21T01:04:09.002Z,34.67
2023-05-21T01:05:09.065Z,34.61
2023-05-21T01:06:09.128Z,34.62
2023-05-21T01:07:09.174Z,34.67
2023-05-21T01:08:09.193Z,34.62
2023-05-21T01:09:09.338Z,34.64
2023-05-21T01:10:09.309Z,34.65
2023-05-21T01:11:09.370Z,34.63
2023-05-21T01:12:09.419Z,34.65
2023-05-21T01:13:09.469Z,34.61
2023-05-21T01:14:09.530Z,34.61
2023-05-21T01:15:09.590Z,34.64
2023-05-21T01:16:09.649Z,34.67
2023-05-21T01:17:10.513Z,34.71
2023-05-21T01:18:09.780Z,34.65
2023-05-21T01:19:09.997Z,34.70
2023-05-21T01:20:09.871Z,34.70
2023-05-21T01:21:09.924Z,34.67
2023-05-21T01:22:09.984Z,34.71
2023-05-21T01:23:10.014Z,34.70
2023-05-21T01:24:10.061Z,34.68
2023-05-21T01:25:10.096Z,34.68
2023-05-21T01:26:10.174Z,34.72
2023-05-21T01:27:10.222Z,34.67
2023-05-21T01:28:10.283Z,34.71
2023-05-21T01:29:10.342Z,34.68
2023-05-21T01:30:10.390Z,34.64
2023-05-21T01:31:10.467Z,34.67
2023-05-21T01:32:10.520Z,34.68
2023-05-21T01:33:10.662Z,34.71
2023-05-21T01:34:10.662Z,34.68
2023-05-21T01:35:10.694Z,34.67
2023-05-21T01:36:10.726Z,34.68
2023-05-21T01:37:10.791Z,34.72
2023-05-21T01:38:10.864Z,34.70
2023-05-21T01:39:10.918Z,34.75
2023-05-21T01:40:10.971Z,34.72
2023-05-21T01:41:11.040Z,34.68
2023-05-21T01:42:11.087Z,34.67
2023-05-21T01:43:11.149Z,34.73
2023-05-21T01:44:11.190Z,34.71
2023-05-21T01:45:11.334Z,34.71
2023-05-21T01:46:11.360Z,34.68
2023-05-21T01:47:11.368Z,34.70
2023-05-21T01:48:11.435Z,34.72
2023-05-21T01:49:11.456Z,34.67
2023-05-21T01:50:11.503Z,34.74
2023-05-21T01:51:12.335Z,34.74
2023-05-21T01:52:11.601Z,34.74
2023-05-21T01:53:11.663Z,34.72
2023-05-21T01:54:11.693Z,34.66
2023-05-21T01:55:11.819Z,34.70
2023-05-21T01:56:11.790Z,34.72
2023-05-21T01:57:11.850Z,34.68
2023-05-21T01:58:11.911Z,34.69
2023-05-21T01:59:12.010Z,34.73
2023-05-21T02:00:12.046Z,34.70
2023-05-21T02:01:12.053Z,34.72
2023-05-21T02:02:12.172Z,34.68
2023-05-21T02:03:12.222Z,34.74
2023-05-21T02:04:12.249Z,34.72
2023-05-21T02:05:12.270Z,34.70
2023-05-21T02:06:12.328Z,34.77
2023-05-21T02:07:12.384Z,34.76
2023-05-21T02:08:12.430Z,34.74
2023-05-21T02:09:12.460Z,34.74
2023-05-21T02:10:12.520Z,34.73
2023-05-21T02:11:12.852Z,34.74
2023-05-21T02:12:12.619Z,34.74
2023-05-21T02:13:12.684Z,34.77
2023-05-21T02:14:12.726Z,34.78
2023-05-21T02:15:12.768Z,34.77
2023-05-21T02:16:12.880Z,34.76
2023-05-21T02:17:12.870Z,34.75
2023-05-21T02:18:12.939Z,34.74
2023-05-21T02:19:13.017Z,34.70
2023-05-21T02:20:12.996Z,34.77
2023-05-21T02:21:13.028Z,34.74
2023-05-21T02:22:13.019Z,34.76
2023-05-21T02:23:13.152Z,34.73
2023-05-21T02:24:13.106Z,34.74
2023-05-21T02:25:13.122Z,34.73
2023-05-21T02:26:13.116Z,34.73
2023-05-21T02:27:13.139Z,34.75
2023-05-21T02:28:13.126Z,34.75
2023-05-21T02:29:13.116Z,34.73
2023-05-21T02:30:13.111Z,34.78
2023-05-21T02:31:13.116Z,34.77
2023-05-21T02:32:13.121Z,34.74
2023-05-21T02:33:13.116Z,34.73
2023-05-21T02:34:13.126Z,34.77
2023-05-21T02:35:13.135Z,34.74
2023-05-21T02:36:13.307Z,34.74
2023-05-21T02:37:13.183Z,34.77
2023-05-21T02:38:13.202Z,34.76
2023-05-21T02:39:13.249Z,34.78
2023-05-21T02:40:13.367Z,34.77
2023-05-21T02:41:13.875Z,34.79
2023-05-21T02:42:13.296Z,34.76
2023-05-21T02:43:15.405Z,34.78
2023-05-21T02:44:13.334Z,34.80
2023-05-21T02:45:13.328Z,34.74
2023-05-21T02:46:13.424Z,34.78
2023-05-21T02:47:13.311Z,34.75
2023-05-21T02:48:13.488Z,34.75
2023-05-21T02:49:13.302Z,34.82
2023-05-21T02:50:13.367Z,34.78
2023-05-21T02:51:13.274Z,34.76
2023-05-21T02:52:13.279Z,34.78
2023-05-21T02:53:13.262Z,34.75
2023-05-21T02:54:13.260Z,34.78
2023-05-21T02:55:13.270Z,34.79
2023-05-21T02:56:13.245Z,34.79
2023-05-21T02:57:13.297Z,34.79
2023-05-21T02:58:13.230Z,34.80
2023-05-21T02:59:13.224Z,34.82
2023-05-21T03:00:13.218Z,34.79
2023-05-21T03:01:13.306Z,34.79
2023-05-21T03:02:13.240Z,34.78
2023-05-21T03:03:13.299Z,34.78
2023-05-21T03:04:13.180Z,34.80
2023-05-21T03:05:13.190Z,34.79
2023-05-21T03:06:13.161Z,34.80
2023-05-21T03:07:13.164Z,34.83
2023-05-21T03:08:13.165Z,34.78
2023-05-21T03:09:13.150Z,34.81
2023-05-21T03:10:13.147Z,34.82
2023-05-21T03:11:13.142Z,34.79
2023-05-21T03:12:13.139Z,34.78
2023-05-21T03:13:13.153Z,34.79
2023-05-21T03:14:13.109Z,34.74
2023-05-21T03:15:13.189Z,34.74
2023-05-21T03:16:13.139Z,34.79
2023-05-21T03:17:13.094Z,34.78
2023-05-21T03:18:13.143Z,34.80
2023-05-21T03:19:13.108Z,34.78
2023-05-21T03:20:13.082Z,34.82
2023-05-21T03:21:13.070Z,34.81
2023-05-21T03:22:13.062Z,34.83
2023-05-21T03:23:15.533Z,34.84
2023-05-21T03:24:13.052Z,34.85
2023-05-21T03:25:13.079Z,34.79
2023-05-21T03:26:13.041Z,34.80
2023-05-21T03:27:13.048Z,34.80
2023-05-21T03:28:13.019Z,34.81
2023-05-21T03:29:13.015Z,34.80
2023-05-21T03:30:13.012Z,34.84
2023-05-21T03:31:13.004Z,34.83
2023-05-21T03:32:13.089Z,34.79
2023-05-21T03:33:12.991Z,34.80
2023-05-21T03:34:13.887Z,34.81
2023-05-21T03:35:12.980Z,34.80
2023-05-21T03:36:12.992Z,34.79
2023-05-21T03:37:12.967Z,34.80
2023-05-21T03:38:13.043Z,34.80
2023-05-21T03:39:12.940Z,34.79
2023-05-21T03:40:13.911Z,34.82
2023-05-21T03:41:12.938Z,34.77
2023-05-21T03:42:12.931Z,34.84
2023-05-21T03:43:12.928Z,34.79
2023-05-21T03:44:12.901Z,34.84
2023-05-21T03:45:12.900Z,34.84
2023-05-21T03:46:12.954Z,34.81
2023-05-21T03:47:12.890Z,34.79
2023-05-21T03:48:12.882Z,34.80
2023-05-21T03:49:12.887Z,34.81
2023-05-21T03:50:12.891Z,34.84
2023-05-21T03:51:12.871Z,34.84
2023-05-21T03:52:12.857Z,34.76
2023-05-21T03:53:12.859Z,34.82
2023-05-21T03:54:12.855Z,34.81
2023-05-21T03:55:12.837Z,34.81
2023-05-21T03:56:12.841Z,34.81
2023-05-21T03:57:12.823Z,34.81
2023-05-21T03:58:12.812Z,34.80
2023-05-21T03:59:12.813Z,34.81
2023-05-21T04:00:12.799Z,34.81
2023-05-21T04:01:12.810Z,34.85
2023-05-21T04:02:12.820Z,34.82
2023-05-21T04:03:13.586Z,34.80
2023-05-21T04:04:12.895Z,34.79
2023-05-21T04:05:12.775Z,34.78
2023-05-21T04:06:12.844Z,34.78
2023-05-21T04:07:12.753Z,34.81
2023-05-21T04:08:12.752Z,34.80
2023-05-21T04:09:12.738Z,34.79
2023-05-21T04:10:12.736Z,34.77
2023-05-21T04:11:12.768Z,34.79
2023-05-21T04:12:12.765Z,34.76
2023-05-21T04:13:12.710Z,34.77
2023-05-21T04:14:12.703Z,34.79
2023-05-21T04:15:12.709Z,34.78
2023-05-21T04:16:12.794Z,34.83
2023-05-21T04:17:12.745Z,34.76
2023-05-21T04:18:12.679Z,34.78
2023-05-21T04:19:12.741Z,34.77
2023-05-21T04:20:12.664Z,34.80
2023-05-21T04:21:12.677Z,34.81
2023-05-21T04:22:12.662Z,34.78
2023-05-21T04:23:12.638Z,34.79
2023-05-21T04:24:12.634Z,34.78
2023-05-21T04:25:12.629Z,34.75
2023-05-21T04:26:12.621Z,34.77
2023-05-21T04:27:12.631Z,34.73
2023-05-21T04:28:12.607Z,34.74
2023-05-21T04:29:12.612Z,34.71
2023-05-21T04:30:12.598Z,34.71
2023-05-21T04:31:12.622Z,34.75
2023-05-21T04:32:12.594Z,34.74
2023-05-21T04:33:12.590Z,34.64
2023-05-21T04:34:12.567Z,34.70
2023-05-21T04:35:12.558Z,34.66
2023-05-21T04:36:12.557Z,34.68
2023-05-21T04:37:12.565Z,34.68
2023-05-21T04:38:12.535Z,34.71
2023-05-21T04:39:12.554Z,34.71
2023-05-21T04:40:12.527Z,34.69
2023-05-21T04:41:12.532Z,34.69
2023-05-21T04:42:12.525Z,34.70
2023-05-21T04:43:12.503Z,34.68
2023-05-21T04:44:12.498Z,34.70
2023-05-21T04:45:12.488Z,34.68
2023-05-21T04:46:13.418Z,34.67
2023-05-21T04:47:12.484Z,34.67
2023-05-21T04:48:12.471Z,34.68
2023-05-21T04:49:12.464Z,34.63
2023-05-21T04:50:12.515Z,34.64
2023-05-21T04:51:12.453Z,34.62
2023-05-21T04:52:12.438Z,34.64
2023-05-21T04:53:12.429Z,34.64
2023-05-21T04:54:12.442Z,34.62
2023-05-21T04:55:12.427Z,34.64
2023-05-21T04:56:12.414Z,34.65
2023-05-21T04:57:12.411Z,34.61
2023-05-21T04:58:12.418Z,34.59
2023-05-21T04:59:12.382Z,34.63
2023-05-21T05:00:12.401Z,34.62
2023-05-21T05:01:12.444Z,34.57
2023-05-21T05:02:12.372Z,34.59
2023-05-21T05:03:12.433Z,34.54
2023-05-21T05:04:12.394Z,34.53
2023-05-21T05:05:12.423Z,34.54
2023-05-21T05:06:12.462Z,34.54
2023-05-21T05:07:12.475Z,34.52
2023-05-21T05:08:15.834Z,34.53
2023-05-21T05:09:12.503Z,34.54
2023-05-21T05:10:12.481Z,34.52
2023-05-21T05:11:12.491Z,34.48
2023-05-21T05:12:12.481Z,34.55
2023-05-21T05:13:12.498Z,34.50
2023-05-21T05:14:12.471Z,34.55
2023-05-21T05:15:12.471Z,34.54
2023-05-21T05:16:12.463Z,34.51
2023-05-21T05:17:12.447Z,34.56
2023-05-21T05:18:12.437Z,34.49
2023-05-21T05:19:12.436Z,34.51
2023-05-21T05:20:12.426Z,34.49
2023-05-21T05:21:12.421Z,34.50
2023-05-21T05:22:13.535Z,34.47
2023-05-21T05:23:12.411Z,34.47
2023-05-21T05:24:12.403Z,34.47
2023-05-21T05:25:12.417Z,34.48
2023-05-21T05:26:12.407Z,34.47
2023-05-21T05:27:12.364Z,34.47
2023-05-21T05:28:12.504Z,34.42
2023-05-21T05:29:12.361Z,34.46
2023-05-21T05:30:12.364Z,34.47
2023-05-21T05:31:12.396Z,34.45
2023-05-21T05:32:12.353Z,34.42
2023-05-21T05:33:12.341Z,34.42
2023-05-21T05:34:12.332Z,34.39
2023-05-21T05:35:12.328Z,34.48
2023-05-21T05:36:12.338Z,34.40
2023-05-21T05:37:12.322Z,34.40
2023-05-21T05:38:12.342Z,34.38
2023-05-21T05:39:12.315Z,34.36
2023-05-21T05:40:12.366Z,34.36
2023-05-21T05:41:12.417Z,34.34
2023-05-21T05:42:12.464Z,34.24
2023-05-21T05:43:12.532Z,34.22
2023-05-21T05:44:12.645Z,34.19
2023-05-21T05:45:12.646Z,34.07
2023-05-21T05:46:12.746Z,34.11
2023-05-21T05:47:12.739Z,34.05
2023-05-21T05:48:12.800Z,34.06
2023-05-21T05:49:12.853Z,34.05
2023-05-21T05:50:12.897Z,34.01
2023-05-21T05:51:12.941Z,33.99
2023-05-21T05:52:12.998Z,34.00
2023-05-21T05:53:13.044Z,34.00
2023-05-21T05:54:13.089Z,34.04
2023-05-21T05:55:13.130Z,34.06
2023-05-21T05:56:13.183Z,34.08
2023-05-21T05:57:13.228Z,34.11
2023-05-21T05:58:13.275Z,34.05
2023-05-21T05:59:13.327Z,34.06
2023-05-21T06:00:13.374Z,34.11
2023-05-21T06:01:13.428Z,34.07
2023-05-21T06:02:13.494Z,34.09
2023-05-21T06:03:13.564Z,34.06
2023-05-21T06:04:13.586Z,34.07
2023-05-21T06:05:13.608Z,34.05
2023-05-21T06:06:13.800Z,34.04
2023-05-21T06:07:13.717Z,34.09
2023-05-21T06:08:13.772Z,34.11
2023-05-21T06:09:13.812Z,34.08
2023-05-21T06:10:13.871Z,34.09
2023-05-21T06:11:13.908Z,34.08
2023-05-21T06:12:15.074Z,34.04
2023-05-21T06:13:13.998Z,34.08
2023-05-21T06:14:14.054Z,34.01
2023-05-21T06:15:14.092Z,34.02
2023-05-21T06:16:14.301Z,34.04
2023-05-21T06:17:14.196Z,33.98
2023-05-21T06:18:14.220Z,33.99
2023-05-21T06:19:14.312Z,33.98
2023-05-21T06:20:14.312Z,33.97
2023-05-21T06:21:14.352Z,33.93
2023-05-21T06:22:14.398Z,33.95
2023-05-21T06:23:14.436Z,33.93
2023-05-21T06:24:14.477Z,33.92
2023-05-21T06:25:14.572Z,33.94
2023-05-21T06:26:14.563Z,33.89
2023-05-21T06:27:14.603Z,33.97
2023-05-21T06:28:14.643Z,33.91
2023-05-21T06:29:15.582Z,33.88
2023-05-21T06:30:15.474Z,33.86
2023-05-21T06:31:14.748Z,33.87
2023-05-21T06:32:14.789Z,33.87
2023-05-21T06:33:14.853Z,33.83
2023-05-21T06:34:14.845Z,33.82
2023-05-21T06:35:14.885Z,33.85
2023-05-21T06:36:14.905Z,33.82
2023-05-21T06:37:14.945Z,33.85
2023-05-21T06:38:14.967Z,33.81
2023-05-21T06:39:14.991Z,33.80
2023-05-21T06:40:15.037Z,33.78
2023-05-21T06:41:15.062Z,33.79
2023-05-21T06:42:15.094Z,33.76
2023-05-21T06:43:15.121Z,33.80
2023-05-21T06:44:15.158Z,33.69
2023-05-21T06:45:15.206Z,33.71
2023-05-21T06:46:15.244Z,33.66
2023-05-21T06:47:15.225Z,33.66
2023-05-21T06:48:15.251Z,33.56
2023-05-21T06:49:15.275Z,33.57
2023-05-21T06:50:15.293Z,33.51
2023-05-21T06:51:15.318Z,33.53
2023-05-21T06:52:15.335Z,33.46
2023-05-21T06:53:15.350Z,33.41
2023-05-21T06:54:15.415Z,33.32
2023-05-21T06:55:15.952Z,33.29
2023-05-21T06:56:15.412Z,33.24
2023-05-21T06:57:15.437Z,33.20
2023-05-21T06:58:15.449Z,33.11
2023-05-21T06:59:15.469Z,33.02
2023-05-21T07:00:15.478Z,32.99
2023-05-21T07:01:15.626Z,32.92
2023-05-21T07:02:15.603Z,32.84
2023-05-21T07:03:15.693Z,32.84
2023-05-21T07:04:15.595Z,32.81
2023-05-21T07:05:15.694Z,32.73
2023-05-21T07:06:15.618Z,32.68
2023-05-21T07:07:15.610Z,32.69
2023-05-21T07:08:15.607Z,32.63
2023-05-21T07:09:15.621Z,32.54
2023-05-21T07:10:16.455Z,32.54
2023-05-21T07:11:15.675Z,32.46
2023-05-21T07:12:15.703Z,32.43
2023-05-21T07:13:15.767Z,32.43
2023-05-21T07:14:15.818Z,32.43
2023-05-21T07:15:15.876Z,32.44
2023-05-21T07:16:15.980Z,32.41
2023-05-21T07:17:16.002Z,32.32
2023-05-21T07:18:16.031Z,32.36
2023-05-21T07:19:16.099Z,32.40
2023-05-21T07:20:16.100Z,32.36
2023-05-21T07:21:16.160Z,32.33
2023-05-21T07:22:16.194Z,32.33
2023-05-21T07:23:16.252Z,32.34
2023-05-21T07:24:16.960Z,32.27
2023-05-21T07:25:16.443Z,32.30
2023-05-21T07:26:16.439Z,32.28
2023-05-21T07:27:25.297Z,32.28
2023-05-21T07:28:17.501Z,32.21
2023-05-21T07:29:16.484Z,32.20
2023-05-21T07:30:16.476Z,32.19
2023-05-21T07:31:16.503Z,32.17
2023-05-21T07:32:16.480Z,32.09
2023-05-21T07:33:16.476Z,32.03
2023-05-21T07:34:16.447Z,32.07
2023-05-21T07:35:16.453Z,32.08
2023-05-21T07:36:16.495Z,32.01
2023-05-21T07:37:16.468Z,31.93
2023-05-21T07:38:16.524Z,31.95
2023-05-21T07:39:16.558Z,31.91
2023-05-21T07:40:16.631Z,31.91
2023-05-21T07:41:18.663Z,31.91
2023-05-21T07:42:16.687Z,31.90
2023-05-21T07:43:16.715Z,31.93
2023-05-21T07:44:16.755Z,31.88
2023-05-21T07:45:16.792Z,31.91
2023-05-21T07:46:16.881Z,31.85
2023-05-21T07:47:16.868Z,31.87
2023-05-21T07:48:16.910Z,31.82
2023-05-21T07:49:17.122Z,31.82
2023-05-21T07:50:16.980Z,31.79
2023-05-21T07:51:17.020Z,31.81
2023-05-21T07:52:17.062Z,31.78
2023-05-21T07:53:17.090Z,31.73
2023-05-21T07:54:17.117Z,31.71
2023-05-21T07:55:17.151Z,31.67
2023-05-21T07:56:17.241Z,31.63
2023-05-21T07:57:17.217Z,31.71
2023-05-21T07:58:17.242Z,31.80
2023-05-21T07:59:17.274Z,31.78
2023-05-21T08:00:17.310Z,31.86
2023-05-21T08:01:17.386Z,31.86
2023-05-21T08:02:17.396Z,31.84
2023-05-21T08:03:17.590Z,31.87
2023-05-21T08:04:17.568Z,31.90
2023-05-21T08:05:17.521Z,31.89
2023-05-21T08:06:17.545Z,31.89
2023-05-21T08:07:17.570Z,31.89
2023-05-21T08:08:17.613Z,31.93
2023-05-21T08:09:17.642Z,31.89
2023-05-21T08:10:19.240Z,31.90
2023-05-21T08:11:17.727Z,31.85
2023-05-21T08:12:17.800Z,31.87
2023-05-21T08:13:17.814Z,31.90
2023-05-21T08:14:17.832Z,31.86
2023-05-21T08:15:17.865Z,31.89
2023-05-21T08:16:17.956Z,31.87
2023-05-21T08:17:17.952Z,31.93
2023-05-21T08:18:17.998Z,31.89
2023-05-21T08:19:18.054Z,31.87
2023-05-21T08:20:18.066Z,31.86
2023-05-21T08:21:18.103Z,31.85
2023-05-21T08:22:18.138Z,31.89
2023-05-21T08:23:18.179Z,31.93
2023-05-21T08:24:18.222Z,31.89
2023-05-21T08:25:18.257Z,31.89
2023-05-21T08:26:18.301Z,31.88
2023-05-21T08:27:18.335Z,31.89
2023-05-21T08:28:18.380Z,31.89
2023-05-21T08:29:18.413Z,31.85
2023-05-21T08:30:18.485Z,31.78
2023-05-21T08:31:18.517Z,31.74
2023-05-21T08:32:18.523Z,31.76
2023-05-21T08:33:20.831Z,31.72
2023-05-21T08:34:18.560Z,31.69
2023-05-21T08:35:18.529Z,31.63
2023-05-21T08:36:18.508Z,31.61
2023-05-21T08:37:18.527Z,31.59
2023-05-21T08:38:18.524Z,31.60
2023-05-21T08:39:18.509Z,31.53
2023-05-21T08:40:18.494Z,31.53
2023-05-21T08:41:18.478Z,31.51
2023-05-21T08:42:32.944Z,31.48
2023-05-21T08:43:19.463Z,31.51
2023-05-21T08:44:18.462Z,31.47
2023-05-21T08:45:18.456Z,31.43
2023-05-21T08:46:18.554Z,31.39
2023-05-21T08:47:18.445Z,31.40
2023-05-21T08:48:18.438Z,31.36
2023-05-21T08:49:19.014Z,31.38
2023-05-21T08:50:18.422Z,31.43
2023-05-21T08:51:18.412Z,31.39
2023-05-21T08:52:18.412Z,31.38
2023-05-21T08:53:27.508Z,31.36
2023-05-21T08:54:19.399Z,31.36
2023-05-21T08:55:18.397Z,31.34
2023-05-21T08:56:18.461Z,31.39
2023-05-21T08:57:18.375Z,31.36
2023-05-21T08:58:18.370Z,31.36
2023-05-21T08:59:18.364Z,31.36
2023-05-21T09:00:18.369Z,31.35
2023-05-21T09:01:18.398Z,31.35
2023-05-21T09:02:18.367Z,31.35
2023-05-21T09:03:18.485Z,31.31
2023-05-21T09:04:20.862Z,31.31
2023-05-21T09:05:18.323Z,31.20
2023-05-21T09:06:18.315Z,31.22
2023-05-21T09:07:18.320Z,31.23
2023-05-21T09:08:18.312Z,31.22
2023-05-21T09:09:18.315Z,31.21
2023-05-21T09:10:18.298Z,31.17
2023-05-21T09:11:18.373Z,31.11
2023-05-21T09:12:18.283Z,31.10
2023-05-21T09:13:18.275Z,31.09
2023-05-21T09:14:18.258Z,31.06
2023-05-21T09:15:18.274Z,31.03
2023-05-21T09:16:18.294Z,31.10
2023-05-21T09:17:18.285Z,31.18
2023-05-21T09:18:18.238Z,31.21
2023-05-21T09:19:18.287Z,31.24
2023-05-21T09:20:18.241Z,31.31
2023-05-21T09:21:18.225Z,31.36
2023-05-21T09:22:18.214Z,31.42
2023-05-21T09:23:18.219Z,31.49
2023-05-21T09:24:18.215Z,31.49
2023-05-21T09:25:18.265Z,31.43
2023-05-21T09:26:18.195Z,31.43
2023-05-21T09:27:19.065Z,31.48
2023-05-21T09:28:18.181Z,31.47
2023-05-21T09:29:18.178Z,31.50
2023-05-21T09:30:18.172Z,31.47
2023-05-21T09:31:18.173Z,31.47
2023-05-21T09:32:18.143Z,31.45
2023-05-21T09:33:18.143Z,31.46
2023-05-21T09:34:18.130Z,31.49
2023-05-21T09:35:18.146Z,31.50
2023-05-21T09:36:18.121Z,31.45
2023-05-21T09:37:27.046Z,31.50
2023-05-21T09:38:19.132Z,31.53
2023-05-21T09:39:18.095Z,31.54
2023-05-21T09:40:18.093Z,31.55
2023-05-21T09:41:21.161Z,31.65
2023-05-21T09:42:18.082Z,31.59
2023-05-21T09:43:18.084Z,31.61
2023-05-21T09:44:18.072Z,31.55
2023-05-21T09:45:18.057Z,31.51
2023-05-21T09:46:18.064Z,31.49
2023-05-21T09:47:18.041Z,31.49
2023-05-21T09:48:18.034Z,31.47
2023-05-21T09:49:18.025Z,31.52
2023-05-21T09:50:18.051Z,31.57
2023-05-21T09:51:18.032Z,31.51
2023-05-21T09:52:18.004Z,31.50
2023-05-21T09:53:17.996Z,31.50
2023-05-21T09:54:17.991Z,31.49
2023-05-21T09:55:17.999Z,31.61
2023-05-21T09:56:17.981Z,31.58
2023-05-21T09:57:17.976Z,31.59
2023-05-21T09:58:17.976Z,31.54
2023-05-21T09:59:17.967Z,31.50
2023-05-21T10:00:17.993Z,31.53
2023-05-21T10:01:17.991Z,31.59
2023-05-21T10:02:18.037Z,31.62
2023-05-21T10:03:18.060Z,31.58
2023-05-21T10:04:17.954Z,31.59
2023-05-21T10:05:17.936Z,31.65
2023-05-21T10:06:17.936Z,31.66
2023-05-21T10:07:17.915Z,31.76
2023-05-21T10:08:17.906Z,31.77
2023-05-21T10:09:17.900Z,31.79
2023-05-21T10:10:17.898Z,31.86
2023-05-21T10:11:17.903Z,31.81
2023-05-21T10:12:17.901Z,31.82
2023-05-21T10:13:17.866Z,31.83
2023-05-21T10:14:17.863Z,31.83
2023-05-21T10:15:17.854Z,31.78
2023-05-21T10:16:17.872Z,31.80
2023-05-21T10:17:17.851Z,31.87
2023-05-21T10:18:17.834Z,31.87
2023-05-21T10:19:17.865Z,31.92
2023-05-21T10:20:17.847Z,31.97
2023-05-21T10:21:17.814Z,32.02
2023-05-21T10:22:17.811Z,32.05
2023-05-21T10:23:17.795Z,32.07
2023-05-21T10:24:17.789Z,32.10
2023-05-21T10:25:17.791Z,32.10
2023-05-21T10:26:17.780Z,32.21
2023-05-21T10:27:17.768Z,32.16
2023-05-21T10:28:17.762Z,32.21
2023-05-21T10:29:19.651Z,32.21
2023-05-21T10:30:17.750Z,32.18
2023-05-21T10:31:17.741Z,32.19
2023-05-21T10:32:17.843Z,32.15
2023-05-21T10:33:17.758Z,32.13
2023-05-21T10:34:17.751Z,32.10
2023-05-21T10:35:17.723Z,32.05
2023-05-21T10:36:17.710Z,32.08
2023-05-21T10:37:17.774Z,32.08
2023-05-21T10:38:17.685Z,32.03
2023-05-21T10:39:17.708Z,32.09
2023-05-21T10:40:17.750Z,32.11
2023-05-21T10:41:18.053Z,32.10
2023-05-21T10:42:17.811Z,32.13
2023-05-21T10:43:17.905Z,32.13
2023-05-21T10:44:17.854Z,32.11
2023-05-21T10:45:17.890Z,32.15
2023-05-21T10:46:17.953Z,32.15
2023-05-21T10:47:17.972Z,32.17
2023-05-21T10:48:18.000Z,32.15
2023-05-21T10:49:18.015Z,32.15
2023-05-21T10:50:18.047Z,32.18
2023-05-21T10:51:18.073Z,32.17
2023-05-21T10:52:18.108Z,32.15
2023-05-21T10:53:18.145Z,32.21
2023-05-21T10:54:18.182Z,32.19
2023-05-21T10:55:18.252Z,32.24
2023-05-21T10:56:18.248Z,32.22
2023-05-21T10:57:19.047Z,32.26
2023-05-21T10:58:18.308Z,32.26
2023-05-21T10:59:18.394Z,32.26
2023-05-21T11:00:18.387Z,32.33
2023-05-21T11:01:18.424Z,32.31
2023-05-21T11:02:18.483Z,32.35
2023-05-21T11:03:18.582Z,32.34
2023-05-21T11:04:18.524Z,32.36
2023-05-21T11:05:19.560Z,32.34
2023-05-21T11:06:18.601Z,32.32
2023-05-21T11:07:18.699Z,32.38
2023-05-21T11:08:18.692Z,32.36
2023-05-21T11:09:18.766Z,32.39
2023-05-21T11:10:18.828Z,32.38
2023-05-21T11:11:18.791Z,32.36
2023-05-21T11:12:18.846Z,32.39
2023-05-21T11:13:18.876Z,32.45
2023-05-21T11:14:20.812Z,32.44
2023-05-21T11:15:18.944Z,32.48
2023-05-21T11:16:19.054Z,32.50
2023-05-21T11:17:19.683Z,32.54
2023-05-21T11:18:19.085Z,32.53
2023-05-21T11:19:19.252Z,32.55
2023-05-21T11:20:19.166Z,32.54
2023-05-21T11:21:19.214Z,32.52
2023-05-21T11:22:19.250Z,32.57
2023-05-21T11:23:19.290Z,32.61
2023-05-21T11:24:19.353Z,32.60
2023-05-21T11:25:19.401Z,32.59
2023-05-21T11:26:19.434Z,32.66
2023-05-21T11:27:19.475Z,32.59
2023-05-21T11:28:19.524Z,32.60
2023-05-21T11:29:20.553Z,32.60
2023-05-21T11:30:19.624Z,32.62
2023-05-21T11:31:19.694Z,32.60
2023-05-21T11:32:19.700Z,32.57
2023-05-21T11:33:19.723Z,32.60
2023-05-21T11:34:19.768Z,32.58
2023-05-21T11:35:19.809Z,32.58
2023-05-21T11:36:19.936Z,32.58
2023-05-21T11:37:19.926Z,32.52
2023-05-21T11:38:19.920Z,32.50
2023-05-21T11:39:20.031Z,32.48
2023-05-21T11:40:19.991Z,32.53
2023-05-21T11:41:20.048Z,32.46
2023-05-21T11:42:20.069Z,32.50
2023-05-21T11:43:20.112Z,32.46
2023-05-21T11:44:20.164Z,32.46
2023-05-21T11:45:20.198Z,32.50
2023-05-21T11:46:20.291Z,32.47
2023-05-21T11:47:20.296Z,32.44
2023-05-21T11:48:20.309Z,32.50
2023-05-21T11:49:20.354Z,32.47
2023-05-21T11:50:20.406Z,32.44
2023-05-21T11:51:20.423Z,32.42
2023-05-21T11:52:20.468Z,32.48
2023-05-21T11:53:20.504Z,32.46
2023-05-21T11:54:20.548Z,32.43
2023-05-21T11:55:20.658Z,32.46
2023-05-21T11:56:20.618Z,32.49
2023-05-21T11:57:20.713Z,32.43
2023-05-21T11:58:20.701Z,32.50
2023-05-21T11:59:20.727Z,32.48
2023-05-21T12:00:20.760Z,32.50
2023-05-21T12:01:20.807Z,32.48
2023-05-21T12:02:20.988Z,32.51
2023-05-21T12:03:21.615Z,32.55
2023-05-21T12:04:20.960Z,32.54
2023-05-21T12:05:21.055Z,32.57
2023-05-21T12:06:21.131Z,32.55
2023-05-21T12:07:21.098Z,32.57
2023-05-21T12:08:21.140Z,32.59
2023-05-21T12:09:21.202Z,32.63
2023-05-21T12:10:21.260Z,32.62
2023-05-21T12:11:21.312Z,32.67
2023-05-21T12:12:21.363Z,32.68
2023-05-21T12:13:21.392Z,32.67
2023-05-21T12:14:21.476Z,32.69
2023-05-21T12:15:21.504Z,32.69
2023-05-21T12:16:21.603Z,32.71
2023-05-21T12:17:21.623Z,32.76
2023-05-21T12:18:21.694Z,32.69
2023-05-21T12:19:21.804Z,32.71
2023-05-21T12:20:21.777Z,32.71
2023-05-21T12:21:21.834Z,32.75
2023-05-21T12:22:21.887Z,32.79
2023-05-21T12:23:21.940Z,32.82
2023-05-21T12:24:21.989Z,32.79
2023-05-21T12:25:22.063Z,32.77
2023-05-21T12:26:22.110Z,32.80
2023-05-21T12:27:22.159Z,32.76
2023-05-21T12:28:22.207Z,32.80
2023-05-21T12:29:22.274Z,32.83
2023-05-21T12:30:22.341Z,32.83
2023-05-21T12:31:22.435Z,32.82
2023-05-21T12:32:22.521Z,32.84
2023-05-21T12:33:25.028Z,32.83
2023-05-21T12:34:22.576Z,32.88
2023-05-21T12:35:22.606Z,32.85
2023-05-21T12:36:22.482Z,32.85
2023-05-21T12:37:22.471Z,32.85
2023-05-21T12:38:22.471Z,32.90
2023-05-21T12:39:22.461Z,32.89
2023-05-21T12:40:22.563Z,32.91
2023-05-21T12:41:22.438Z,32.89
2023-05-21T12:42:22.441Z,32.89
2023-05-21T12:43:22.426Z,32.89
2023-05-21T12:44:22.422Z,32.93
2023-05-21T12:45:22.418Z,32.93
2023-05-21T12:46:22.423Z,32.91
2023-05-21T12:47:22.396Z,32.93
2023-05-21T12:48:22.392Z,32.96
2023-05-21T12:49:22.381Z,32.97
2023-05-21T12:50:22.381Z,32.92
2023-05-21T12:51:22.364Z,32.92
2023-05-21T12:52:22.370Z,32.89